Terminal Aerodrome Forecast
Issued by NWS

Home | Current Version | Previous Version | Text Only | Print | Product List | Glossary On
Versions: 1 2 3 4 5 6 7 8 9 10 11 12 13 14 15 16 17 18 19 20 21 22 23 24 25 26 27 28 29 30 31
000
FTUS45 KPSR 292113 AAA
TAFSDL
TAF AMD
KSDL 292113Z 2921/3018 24008KT P6SM FEW100 SCT150 BKN250
     FM292300 24010KT P6SM VCTS SCT100CB BKN150 BKN200
     FM300400 VRB06KT P6SM VCSH SCT080 BKN100 BKN180=

USA.gov is the U.S. government's official web portal to all federal, state and local government web resources and services.